Time;durP1;ratioP1;P1;durP2;ratioP2;P2;SDS_P1;SDS_P2;PMS_P1;PMS_P2;Temp;Humidity;BMP_temperature;BMP_pressure;BME280_temperature;BME280_humidity;BME280_pressure;Samples;Min_cycle;Max_cycle;Signal;HPM_P1;HPM_P2
2021/06/09 00:02:17;;;;;;;10.63;7.97;;;;;;;12.69;81.97;94561.98;1619342;87;21028;-53
2021/06/09 00:04:44;;;;;;;10.05;7.60;;;;;;;12.66;82.13;94564.27;1606480;88;21056;-52
2021/06/09 00:07:11;;;;;;;12.88;7.22;;;;;;;12.66;82.13;94564.27;1616332;87;20964;-53
2021/06/09 00:09:38;;;;;;;8.78;7.37;;;;;;;12.60;82.03;94561.39;1621641;87;21142;-54
2021/06/09 00:12:06;;;;;;;9.75;7.28;;;;;;;12.57;82.18;94570.58;1627818;87;21043;-55
2021/06/09 00:14:33;;;;;;;17.85;7.17;;;;;;;12.56;82.22;94567.67;1621885;87;21094;-53
2021/06/09 00:17:00;;;;;;;12.33;8.58;;;;;;;12.57;82.06;94557.41;1625999;87;21007;-53
2021/06/09 00:19:27;;;;;;;10.90;8.05;;;;;;;12.54;82.05;94560.47;1622271;87;21008;-53
2021/06/09 00:21:55;;;;;;;16.32;8.53;;;;;;;12.51;81.97;94562.64;1624405;87;21137;-52
2021/06/09 00:24:22;;;;;;;15.10;8.35;;;;;;;12.48;82.28;94569.08;1625091;87;21080;-52
2021/06/09 00:26:51;;;;;;;11.55;7.75;;;;;;;12.42;82.51;94568.94;1622971;87;21147;-52
2021/06/09 00:29:20;;;;;;;14.38;8.05;;;;;;;12.40;82.89;94572.78;1620876;86;21106;-53
2021/06/09 00:31:47;;;;;;;15.30;8.75;;;;;;;12.35;82.44;94565.13;1623689;86;21562;-53
2021/06/09 00:34:14;;;;;;;12.93;8.60;;;;;;;12.25;83.00;94564.98;1622510;87;21518;-52
2021/06/09 00:36:41;;;;;;;11.00;7.87;;;;;;;12.25;83.04;94561.47;1624375;86;21719;-52
2021/06/09 00:39:07;;;;;;;11.57;8.28;;;;;;;12.20;83.09;94561.47;1618620;87;21079;-53
2021/06/09 00:41:35;;;;;;;11.68;8.55;;;;;;;12.19;83.19;94558.56;1625066;86;21185;-52
2021/06/09 00:44:04;;;;;;;24.52;9.35;;;;;;;12.19;83.52;94552.27;1623993;87;21083;-53
2021/06/09 00:46:34;;;;;;;13.72;8.55;;;;;;;12.16;83.86;94552.59;1619655;87;21240;-51
2021/06/09 00:49:01;;;;;;;14.07;8.40;;;;;;;12.15;83.71;94551.06;1622034;87;21524;-52
2021/06/09 00:51:29;;;;;;;11.18;7.28;;;;;;;12.17;83.92;94548.61;1624708;87;20980;-51
2021/06/09 00:53:58;;;;;;;15.98;7.70;;;;;;;12.17;83.73;94542.31;1627051;87;21610;-52
2021/06/09 00:56:25;;;;;;;12.55;9.23;;;;;;;12.16;83.74;94541.56;1625402;86;21102;-52
2021/06/09 00:58:53;;;;;;;15.00;8.65;;;;;;;12.10;83.85;94543.39;1623486;87;21177;-51
2021/06/09 01:01:23;;;;;;;20.37;10.75;;;;;;;12.03;84.00;94540.95;1624958;86;21566;-52
2021/06/09 01:03:50;;;;;;;30.65;9.83;;;;;;;11.96;83.86;94538.52;1619607;87;20988;-52
2021/06/09 01:06:17;;;;;;;17.70;9.85;;;;;;;11.89;83.85;94535.30;1622616;87;21094;-53
2021/06/09 01:08:44;;;;;;;23.07;8.48;;;;;;;11.85;84.08;94543.72;1625550;87;21076;-53
2021/06/09 01:11:15;;;;;;;12.73;8.53;;;;;;;11.86;84.01;94533.48;1613326;87;21147;-53
2021/06/09 01:13:42;;;;;;;14.03;9.35;;;;;;;11.89;84.05;94536.05;1622660;87;20980;-52
2021/06/09 01:16:09;;;;;;;13.50;9.10;;;;;;;11.88;84.16;94531.77;1623070;87;21202;-52
2021/06/09 01:18:36;;;;;;;11.33;8.65;;;;;;;11.90;84.14;94530.70;1619966;87;21020;-53
2021/06/09 01:21:03;;;;;;;8.83;6.87;;;;;;;11.92;84.09;94525.48;1618471;86;21040;-52
2021/06/09 01:23:31;;;;;;;11.53;7.53;;;;;;;11.95;83.75;94531.48;1621982;87;21141;-51
2021/06/09 01:25:58;;;;;;;11.65;7.45;;;;;;;11.95;83.44;94527.34;1629400;86;20972;-52
2021/06/09 01:28:25;;;;;;;11.30;7.15;;;;;;;11.94;83.51;94528.55;1626324;87;21076;-53
2021/06/09 01:30:52;;;;;;;10.68;7.80;;;;;;;11.92;83.19;94524.11;1624058;86;21198;-53
2021/06/09 01:33:20;;;;;;;69.95;11.88;;;;;;;11.90;83.05;94531.33;1626478;86;20980;-51
2021/06/09 01:35:52;;;;;;;11.85;7.67;;;;;;;11.86;82.94;94531.47;1626906;87;21020;-51
2021/06/09 01:38:19;;;;;;;11.85;7.35;;;;;;;11.82;83.20;94533.63;1626675;87;21004;-52
2021/06/09 01:40:45;;;;;;;15.68;8.05;;;;;;;11.80;83.60;94540.21;1625963;86;21027;-52
2021/06/09 01:43:12;;;;;;;11.48;8.00;;;;;;;11.76;83.33;94536.84;1619099;87;21523;-52
2021/06/09 01:45:39;;;;;;;14.47;7.75;;;;;;;11.69;83.45;94538.52;1619598;87;21456;-52
2021/06/09 01:48:06;;;;;;;11.18;7.10;;;;;;;11.61;83.29;94538.67;1626257;86;21146;-52
2021/06/09 01:50:34;;;;;;;13.35;7.62;;;;;;;11.56;83.60;94536.50;1618994;87;21013;-53
2021/06/09 01:53:03;;;;;;;8.38;6.75;;;;;;;11.56;83.46;94532.38;1619835;87;21479;-52
2021/06/09 01:55:34;;;;;;;15.43;8.08;;;;;;;11.54;83.62;94538.92;1607292;88;21497;-54
2021/06/09 01:58:01;;;;;;;14.80;7.60;;;;;;;11.52;83.54;94539.25;1625131;86;21629;-51
2021/06/09 02:00:33;;;;;;;13.08;8.58;;;;;;;11.52;83.69;94535.87;1626306;87;21158;-52
2021/06/09 02:03:00;;;;;;;11.97;7.80;;;;;;;11.52;83.86;94541.38;1625111;86;21072;-53
2021/06/09 02:05:34;;;;;;;11.28;7.22;;;;;;;11.54;83.99;94535.42;1619268;86;21066;-53
2021/06/09 02:08:04;;;;;;;9.60;7.92;;;;;;;11.59;84.11;94533.45;1618002;87;21586;-52
2021/06/09 02:10:31;;;;;;;14.38;7.50;;;;;;;11.61;84.01;94534.54;1619089;86;21027;-52
2021/06/09 02:13:01;;;;;;;9.50;7.42;;;;;;;11.60;83.71;94538.52;1626374;87;21150;-52
2021/06/09 02:15:28;;;;;;;9.43;7.08;;;;;;;11.55;83.58;94535.58;1623135;87;21566;-52
2021/06/09 02:18:09;;;;;;;16.05;6.87;;;;;;;11.51;83.77;94540.47;1623374;87;21535;-52
2021/06/09 02:20:28;;;;;;;9.80;7.65;;;;;;;11.51;83.80;94532.96;1610199;87;20988;-52
2021/06/09 02:22:55;;;;;;;19.98;9.03;;;;;;;11.53;84.12;94530.51;1622249;87;21514;-52
2021/06/09 02:25:23;;;;;;;16.32;9.43;;;;;;;11.57;84.36;94530.39;1616985;87;21153;-53
2021/06/09 02:27:50;;;;;;;11.95;9.10;;;;;;;11.57;84.90;94528.39;1620904;87;21083;-52
2021/06/09 02:30:18;;;;;;;13.58;8.73;;;;;;;11.60;85.06;94527.50;1618672;87;21171;-52
2021/06/09 02:32:46;;;;;;;9.88;8.50;;;;;;;11.66;85.00;94531.17;1621736;87;21039;-52
2021/06/09 02:35:18;;;;;;;11.05;8.53;;;;;;;11.73;85.07;94526.72;1609728;87;21035;-52
2021/06/09 02:37:49;;;;;;;11.97;8.25;;;;;;;11.81;84.92;94525.20;1627614;86;21146;-51
2021/06/09 02:40:15;;;;;;;11.30;7.62;;;;;;;11.87;84.63;94521.97;1611323;86;21089;-51
2021/06/09 02:42:42;;;;;;;10.32;7.40;;;;;;;11.92;84.28;94517.84;1622515;87;21023;-51
2021/06/09 02:45:12;;;;;;;14.80;7.40;;;;;;;11.97;83.87;94522.73;1621467;87;21043;-53
2021/06/09 02:47:41;;;;;;;10.50;7.50;;;;;;;12.02;83.46;94525.64;1620852;87;21020;-52
2021/06/09 02:50:09;;;;;;;13.03;7.47;;;;;;;12.04;83.15;94524.56;1624385;87;21950;-56
2021/06/09 02:52:45;;;;;;;9.15;7.87;;;;;;;12.05;82.81;94526.09;1625862;87;21029;-52
2021/06/09 02:55:39;;;;;;;8.75;7.85;;;;;;;12.04;82.60;94521.80;1623861;87;21031;-52
2021/06/09 02:58:26;;;;;;;10.45;7.00;;;;;;;11.96;82.54;94519.22;1612323;87;21029;-52
2021/06/09 03:01:08;;;;;;;9.85;7.20;;;;;;;11.95;82.42;94521.83;1626089;87;20984;-49
2021/06/09 03:04:09;;;;;;;13.78;8.10;;;;;;;11.96;82.32;94520.60;1615357;87;22064;-52
2021/06/09 03:06:44;;;;;;;12.20;7.90;;;;;;;11.95;82.27;94514.94;1623626;86;21064;-52
2021/06/09 03:09:17;;;;;;;10.40;7.70;;;;;;;11.91;82.47;94524.58;1622768;87;21009;-56
2021/06/09 03:11:52;;;;;;;10.85;8.28;;;;;;;11.86;82.55;94520.44;1617330;86;21024;-60
2021/06/09 03:17:07;;;;;;;12.00;7.90;;;;;;;11.85;82.61;94515.38;1615324;87;22460;-52
2021/06/09 03:20:08;;;;;;;11.35;8.15;;;;;;;11.84;82.74;94520.14;1619738;86;21484;-53
2021/06/09 03:23:06;;;;;;;11.10;8.50;;;;;;;11.87;82.79;94514.33;1625564;87;20947;-51
2021/06/09 03:26:02;;;;;;;12.43;8.03;;;;;;;11.88;82.76;94515.23;1622206;87;21119;-52
2021/06/09 03:28:42;;;;;;;11.10;8.08;;;;;;;11.93;82.83;94520.75;1620226;87;21028;-51
2021/06/09 03:31:10;;;;;;;25.32;9.73;;;;;;;12.05;82.85;94528.10;1620093;87;21120;-54
2021/06/09 03:33:41;;;;;;;15.72;8.68;;;;;;;12.11;82.75;94522.86;1625881;86;21012;-52
2021/06/09 03:36:26;;;;;;;12.50;6.92;;;;;;;12.15;82.77;94522.70;1626803;86;21071;-52
2021/06/09 03:39:04;;;;;;;12.95;7.20;;;;;;;12.23;82.78;94521.18;1616157;86;21212;-50
2021/06/09 03:41:49;;;;;;;10.38;7.78;;;;;;;12.28;82.55;94510.27;1623127;87;20984;-51
2021/06/09 03:44:17;;;;;;;10.68;8.10;;;;;;;12.36;82.74;94513.47;1621027;87;21169;-50
2021/06/09 03:46:43;;;;;;;8.50;7.55;;;;;;;12.51;82.83;94509.61;1624574;86;21526;-51
2021/06/09 03:49:14;;;;;;;11.30;7.83;;;;;;;12.65;82.62;94510.30;1632433;87;21030;-51
2021/06/09 03:51:43;;;;;;;14.38;7.10;;;;;;;12.76;82.57;94509.98;1624388;87;21143;-50
2021/06/09 03:54:09;;;;;;;11.25;7.97;;;;;;;12.88;82.45;94515.89;1614509;87;21086;-51
2021/06/09 03:56:41;;;;;;;9.78;7.95;;;;;;;13.00;82.33;94518.31;1622281;87;21173;-51
2021/06/09 03:59:09;;;;;;;11.90;7.83;;;;;;;13.09;82.42;94507.98;1626122;87;21110;-52
2021/06/09 04:01:40;;;;;;;14.90;11.88;;;;;;;13.18;82.35;94510.71;1623147;87;21126;-52
2021/06/09 04:04:07;;;;;;;16.80;12.53;;;;;;;13.32;82.10;94512.00;1623405;87;21115;-52
2021/06/09 04:06:36;;;;;;;12.33;9.70;;;;;;;13.39;81.73;94508.27;1609163;87;21108;-51
2021/06/09 04:09:04;;;;;;;10.93;8.50;;;;;;;13.42;81.26;94512.11;1619083;87;21814;-51
2021/06/09 04:11:31;;;;;;;9.63;8.73;;;;;;;13.46;80.92;94511.30;1614009;87;21075;-51
2021/06/09 04:13:57;;;;;;;9.43;8.53;;;;;;;13.52;80.87;94508.80;1617273;86;21078;-51
2021/06/09 04:16:27;;;;;;;9.18;8.05;;;;;;;13.62;80.77;94513.02;1623570;87;21265;-51
2021/06/09 04:18:54;;;;;;;13.10;8.25;;;;;;;13.73;80.38;94502.80;1623265;87;21142;-51
2021/06/09 04:21:21;;;;;;;16.17;9.28;;;;;;;13.84;80.17;94514.09;1621719;87;21444;-52
2021/06/09 04:23:48;;;;;;;13.13;10.45;;;;;;;13.94;79.84;94509.99;1608546;88;21489;-52
2021/06/09 04:26:16;;;;;;;13.75;9.10;;;;;;;14.03;79.69;94507.16;1602393;87;21087;-53
2021/06/09 04:28:43;;;;;;;11.12;9.18;;;;;;;14.13;79.39;94503.06;1627718;86;20995;-52
2021/06/09 04:31:14;;;;;;;15.58;8.90;;;;;;;14.24;79.22;94502.70;1622392;87;21535;-52
2021/06/09 04:33:44;;;;;;;13.20;7.75;;;;;;;14.40;78.52;94505.60;1621440;87;21642;-52
2021/06/09 04:36:14;;;;;;;13.55;7.65;;;;;;;14.51;77.63;94501.80;1625352;86;21440;-52
2021/06/09 04:38:42;;;;;;;12.40;7.90;;;;;;;14.57;77.03;94496.33;1623645;86;21050;-51
2021/06/09 04:41:09;;;;;;;9.63;8.48;;;;;;;14.66;76.42;94493.47;1623791;87;21126;-52
2021/06/09 04:43:35;;;;;;;27.13;15.93;;;;;;;14.70;76.11;94500.34;1624409;86;21066;-51
2021/06/09 04:46:04;;;;;;;64.85;17.52;;;;;;;14.78;75.91;94497.31;1621990;87;21095;-53
2021/06/09 04:48:31;;;;;;;18.92;12.07;;;;;;;14.87;75.95;94498.60;1621905;87;21418;-52
2021/06/09 04:50:58;;;;;;;24.27;12.18;;;;;;;14.91;75.60;94501.94;1624130;87;21465;-52
2021/06/09 04:53:25;;;;;;;21.15;11.95;;;;;;;14.96;75.45;94501.24;1624385;87;21055;-52
2021/06/09 04:55:53;;;;;;;28.27;11.03;;;;;;;15.04;75.48;94502.36;1617805;87;21084;-53
2021/06/09 04:58:23;;;;;;;11.95;8.40;;;;;;;15.15;75.26;94503.92;1625136;87;21181;-52
2021/06/09 05:00:50;;;;;;;12.73;8.63;;;;;;;15.24;74.47;94496.89;1623168;86;21213;-51
2021/06/09 05:03:17;;;;;;;20.65;9.10;;;;;;;15.31;73.99;94495.72;1624724;87;21174;-52
2021/06/09 05:05:45;;;;;;;11.93;8.48;;;;;;;15.36;73.84;94493.03;1623307;86;21032;-54
2021/06/09 05:08:12;;;;;;;12.82;8.80;;;;;;;15.41;73.57;94488.20;1623399;87;21142;-52
2021/06/09 05:10:42;;;;;;;14.30;7.42;;;;;;;15.47;73.46;94496.57;1633236;86;21000;-52
2021/06/09 05:13:17;;;;;;;11.53;7.15;;;;;;;15.57;73.15;94492.43;1584992;87;21603;-54
2021/06/09 05:15:53;;;;;;;18.90;10.68;;;;;;;15.66;73.11;94491.67;1617992;87;21505;-54
2021/06/09 05:18:28;;;;;;;11.00;7.35;;;;;;;15.76;72.92;94483.97;1626106;87;21409;-53
2021/06/09 05:20:55;;;;;;;14.47;9.15;;;;;;;15.88;72.58;94483.61;1617163;87;21068;-53
2021/06/09 05:23:40;;;;;;;10.70;7.22;;;;;;;15.99;72.35;94487.91;1621208;87;21837;-52
2021/06/09 05:26:09;;;;;;;22.50;8.65;;;;;;;16.08;71.81;94484.96;1588333;88;21016;-53
2021/06/09 05:28:48;;;;;;;12.15;8.05;;;;;;;16.18;71.42;94484.95;1601916;88;21127;-54
2021/06/09 05:31:17;;;;;;;13.83;6.72;;;;;;;16.27;71.03;94477.84;1602011;87;21461;-53
2021/06/09 05:33:44;;;;;;;18.77;8.55;;;;;;;16.38;71.08;94478.73;1613230;87;21207;-53
2021/06/09 05:36:12;;;;;;;20.20;8.05;;;;;;;16.50;70.81;94478.20;1607429;87;21141;-53
2021/06/09 05:38:39;;;;;;;14.58;8.08;;;;;;;16.58;70.71;94477.91;1608720;87;21063;-54
2021/06/09 05:41:11;;;;;;;19.85;9.73;;;;;;;16.68;70.69;94468.91;1600550;86;21471;-52
2021/06/09 05:43:39;;;;;;;16.42;8.60;;;;;;;16.82;70.48;94472.80;1603710;87;21123;-53
2021/06/09 05:46:08;;;;;;;14.05;9.53;;;;;;;16.99;70.54;94472.30;1610389;87;21087;-54
2021/06/09 05:48:40;;;;;;;11.85;8.15;;;;;;;17.14;70.49;94469.52;1607783;87;21332;-57
2021/06/09 05:51:09;;;;;;;;;;;;;;;17.35;70.04;94475.72;1607185;88;21535;-54
2021/06/09 05:53:35;;;;;;;14.23;8.60;;;;;;;17.58;69.45;94481.52;1589195;87;20211;-53
2021/06/09 05:56:03;;;;;;;10.53;7.50;;;;;;;17.76;69.15;94481.88;1610069;86;21240;-54
2021/06/09 05:58:29;;;;;;;11.83;7.67;;;;;;;18.01;69.40;94476.77;1605887;87;20991;-54
2021/06/09 06:01:04;;;;;;;13.45;8.10;;;;;;;18.22;68.83;94474.70;1600545;87;21161;-56
2021/06/09 06:03:29;;;;;;;10.30;7.37;;;;;;;18.45;68.60;94482.50;1599848;88;21457;-54
2021/06/09 06:06:01;;;;;;;16.12;9.53;;;;;;;18.67;68.06;94480.48;1615138;87;21112;-54
2021/06/09 06:08:29;;;;;;;8.10;6.75;;;;;;;18.88;67.97;94484.57;1572638;88;21043;-54
2021/06/09 06:10:55;;;;;;;12.63;7.03;;;;;;;19.04;67.04;94476.06;1544269;89;21094;-53
2021/06/09 06:13:27;;;;;;;11.20;6.92;;;;;;;19.15;66.82;94478.20;1598271;87;21114;-52
2021/06/09 06:15:55;;;;;;;11.50;7.50;;;;;;;19.33;66.59;94476.31;1598733;87;21119;-56
2021/06/09 06:18:36;;;;;;;12.37;6.15;;;;;;;19.52;66.32;94480.08;1598275;87;21133;-57
2021/06/09 06:21:05;;;;;;;9.70;6.47;;;;;;;19.67;64.48;94474.96;1597335;86;21596;-55
2021/06/09 06:23:32;;;;;;;34.48;7.70;;;;;;;19.77;63.18;94478.23;1610336;87;21433;-55
2021/06/09 06:25:58;;;;;;;11.88;6.58;;;;;;;19.88;62.89;94471.97;1604229;87;21198;-55
2021/06/09 06:28:25;;;;;;;11.97;6.17;;;;;;;20.02;62.81;94470.92;1597375;87;21072;-60
2021/06/09 06:30:53;;;;;;;11.90;7.50;;;;;;;20.17;62.72;94474.16;1601601;88;21064;-54
2021/06/09 06:33:26;;;;;;;10.03;6.47;;;;;;;20.35;62.12;94479.89;1606863;87;21977;-55
2021/06/09 06:35:58;;;;;;;9.80;6.45;;;;;;;20.50;61.92;94476.13;1602734;88;21145;-55
2021/06/09 06:38:30;;;;;;;7.80;6.55;;;;;;;20.67;62.11;94476.00;1609994;87;21734;-54
2021/06/09 06:40:57;;;;;;;12.15;5.90;;;;;;;20.85;61.21;94473.36;1613316;86;21618;-56
2021/06/09 06:43:23;;;;;;;10.25;6.95;;;;;;;21.04;59.86;94467.86;1596530;87;21152;-54
2021/06/09 06:45:50;;;;;;;23.83;11.73;;;;;;;21.20;59.08;94470.53;1613423;87;21084;-57
2021/06/09 06:48:18;;;;;;;11.08;7.08;;;;;;;21.37;58.88;94473.16;1624788;86;21106;-56
2021/06/09 06:50:46;;;;;;;7.72;6.05;;;;;;;21.52;59.35;94472.91;1583653;87;21135;-52
2021/06/09 06:53:12;;;;;;;12.28;6.15;;;;;;;21.66;58.47;94472.41;1555198;89;21042;-55
2021/06/09 06:55:42;;;;;;;17.65;8.38;;;;;;;21.69;57.90;94466.48;1557715;89;21108;-55
2021/06/09 06:58:22;;;;;;;8.45;6.28;;;;;;;21.67;58.33;94471.86;1577472;88;21136;-56
2021/06/09 07:00:48;;;;;;;8.23;6.12;;;;;;;21.65;58.75;94473.69;1569028;89;21129;-57
2021/06/09 07:03:15;;;;;;;11.25;6.12;;;;;;;21.67;58.94;94475.31;1519567;89;21375;-54
2021/06/09 07:05:42;;;;;;;7.50;5.90;;;;;;;21.76;58.40;94472.15;1573552;88;21150;-53
2021/06/09 07:08:09;;;;;;;14.70;6.33;;;;;;;21.83;56.93;94461.77;1561775;88;21763;-55
2021/06/09 07:10:37;;;;;;;8.45;5.92;;;;;;;21.95;57.00;94463.14;1564872;89;21090;-52
2021/06/09 07:13:07;;;;;;;17.17;7.20;;;;;;;22.07;56.65;94461.84;1569364;89;21121;-55
2021/06/09 07:15:33;;;;;;;8.80;6.20;;;;;;;22.23;57.07;94456.67;1555638;89;21183;-52
2021/06/09 07:18:02;;;;;;;7.67;5.22;;;;;;;22.36;56.55;94462.37;1547338;90;21163;-55
2021/06/09 07:20:30;;;;;;;11.93;5.37;;;;;;;22.37;55.44;94462.48;1567874;89;21541;-55
2021/06/09 07:22:57;;;;;;;9.93;6.08;;;;;;;22.28;55.91;94461.44;1568085;89;21138;-53
2021/06/09 07:25:27;;;;;;;11.80;9.10;;;;;;;22.15;55.46;94457.80;1561825;89;21132;-55
2021/06/09 07:27:58;;;;;;;15.63;6.92;;;;;;;22.06;57.11;94456.75;1557904;88;21228;-58
2021/06/09 07:30:28;;;;;;;12.33;5.80;;;;;;;21.93;56.37;94451.70;1574502;88;21063;-53
2021/06/09 07:32:56;;;;;;;13.98;6.05;;;;;;;21.76;57.53;94468.72;1574322;89;21580;-55
2021/06/09 07:35:23;;;;;;;11.22;5.95;;;;;;;21.65;57.51;94462.48;1579073;89;21507;-54
2021/06/09 07:37:52;;;;;;;10.78;6.03;;;;;;;21.57;56.40;94459.48;1563233;90;21497;-55
2021/06/09 07:40:22;;;;;;;17.57;6.67;;;;;;;21.58;56.63;94461.63;1580530;89;21170;-56
2021/06/09 07:42:52;;;;;;;18.05;6.70;;;;;;;21.62;57.30;94465.69;1607007;88;21201;-54
2021/06/09 07:45:22;;;;;;;17.37;6.37;;;;;;;21.69;57.26;94455.94;1606176;87;21013;-55
2021/06/09 07:47:49;;;;;;;29.40;13.13;;;;;;;21.70;55.85;94450.45;1581876;88;21141;-54
2021/06/09 07:50:27;;;;;;;18.67;6.28;;;;;;;21.77;56.61;94456.86;1601722;87;21595;-56
2021/06/09 07:52:56;;;;;;;17.12;6.05;;;;;;;21.87;57.02;94453.83;1572898;89;21101;-54
2021/06/09 07:55:24;;;;;;;8.75;4.92;;;;;;;22.05;56.29;94451.81;1558245;88;21567;-55
2021/06/09 07:57:51;;;;;;;7.72;4.65;;;;;;;22.29;53.39;94447.53;1562638;90;21545;-55
2021/06/09 08:00:19;;;;;;;9.23;4.58;;;;;;;22.44;54.05;94443.66;1561318;89;21190;-56
2021/06/09 08:02:46;;;;;;;4.40;4.00;;;;;;;22.48;52.06;94462.34;1566159;88;21032;-53
2021/06/09 08:05:14;;;;;;;7.85;4.30;;;;;;;22.47;48.20;94465.69;1549650;89;23308;-56
2021/06/09 08:07:51;;;;;;;9.18;4.50;;;;;;;22.38;50.85;94474.47;1555646;90;21085;-55
2021/06/09 08:10:19;;;;;;;10.08;4.97;;;;;;;22.18;52.16;94477.76;1541485;91;22028;-53
2021/06/09 08:12:51;;;;;;;8.90;4.67;;;;;;;21.96;54.93;94477.27;1544045;90;21255;-56
2021/06/09 08:15:18;;;;;;;9.95;6.37;;;;;;;21.70;56.74;94484.06;1561852;89;21543;-55
2021/06/09 08:17:45;;;;;;;12.00;5.65;;;;;;;21.45;59.07;94483.92;1570550;88;21152;-55
2021/06/09 08:20:17;;;;;;;6.97;5.15;;;;;;;21.21;60.83;94490.86;1574025;89;21045;-56
2021/06/09 08:22:45;;;;;;;7.55;5.60;;;;;;;20.99;63.06;94486.86;1574436;89;21584;-59
2021/06/09 08:25:14;;;;;;;8.83;5.22;;;;;;;20.80;64.60;94485.95;1561443;90;21031;-59
2021/06/09 08:27:42;;;;;;;8.23;6.20;;;;;;;20.61;65.21;94481.66;1561659;89;20992;-54
2021/06/09 08:30:12;;;;;;;10.48;6.28;;;;;;;20.55;66.90;94484.36;1553016;90;21065;-55
2021/06/09 08:32:39;;;;;;;10.20;5.92;;;;;;;20.58;67.87;94487.52;1554846;90;21488;-54
2021/06/09 08:35:08;;;;;;;12.15;7.90;;;;;;;20.53;67.39;94492.51;1549586;90;22200;-53
2021/06/09 08:37:38;;;;;;;7.83;5.60;;;;;;;20.44;68.40;94477.42;1556086;90;21859;-55
2021/06/09 08:40:07;;;;;;;10.38;6.90;;;;;;;20.34;66.93;94483.22;1614398;87;21113;-54
2021/06/09 08:42:35;;;;;;;7.80;5.80;;;;;;;20.21;66.88;94492.80;1601631;87;21159;-54
2021/06/09 08:45:06;;;;;;;13.15;7.08;;;;;;;20.08;68.24;94498.84;1604952;87;21043;-54
2021/06/09 08:47:35;;;;;;;9.30;6.15;;;;;;;19.87;68.82;94501.16;1584837;88;21646;-55
2021/06/09 08:50:09;;;;;;;11.45;6.53;;;;;;;19.69;69.35;94505.14;1572228;88;21020;-55
2021/06/09 08:52:36;;;;;;;7.97;5.65;;;;;;;19.48;69.24;94511.67;1593378;88;21110;-61
2021/06/09 08:55:04;;;;;;;12.28;8.48;;;;;;;19.24;69.23;94508.67;1606313;87;21246;-56
2021/06/09 08:57:31;;;;;;;7.17;5.40;;;;;;;19.06;69.74;94511.94;1560477;89;21098;-55
2021/06/09 08:59:59;;;;;;;6.97;6.15;;;;;;;18.97;69.23;94512.84;1538635;90;21090;-57
2021/06/09 09:02:26;;;;;;;14.87;10.40;;;;;;;18.91;68.36;94510.66;1554064;90;21760;-54
2021/06/09 09:04:53;;;;;;;18.10;9.70;;;;;;;18.85;69.51;94506.47;1616244;86;21083;-54
2021/06/09 09:07:28;;;;;;;15.80;10.82;;;;;;;18.82;69.24;94504.70;1559754;89;21554;-57
2021/06/09 09:09:59;;;;;;;11.97;7.53;;;;;;;18.82;68.68;94510.92;1591575;87;21471;-55
2021/06/09 09:12:27;;;;;;;20.82;13.98;;;;;;;18.83;68.43;94513.19;1588612;87;21065;-56
2021/06/09 09:14:56;;;;;;;10.80;7.92;;;;;;;18.87;68.66;94512.30;1611333;87;21123;-56
2021/06/09 09:17:25;;;;;;;9.40;6.92;;;;;;;18.84;67.07;94520.92;1608125;87;21123;-56
2021/06/09 09:20:01;;;;;;;11.33;6.62;;;;;;;18.80;68.25;94511.41;1619628;87;21547;-55
2021/06/09 09:22:38;;;;;;;8.63;6.20;;;;;;;18.84;67.88;94514.70;1612478;87;21269;-54
2021/06/09 09:25:15;;;;;;;7.75;6.33;;;;;;;18.92;68.02;94511.55;1619913;87;21101;-58
2021/06/09 09:27:59;;;;;;;6.97;5.25;;;;;;;18.98;68.32;94520.67;1606640;87;21070;-55
2021/06/09 09:30:30;;;;;;;8.70;4.78;;;;;;;19.03;68.39;94512.94;1621157;86;21068;-57
2021/06/09 09:33:08;;;;;;;9.93;5.30;;;;;;;19.13;68.42;94510.65;1617942;87;21202;-55
2021/06/09 09:35:41;;;;;;;16.10;5.35;;;;;;;19.29;68.32;94507.13;1601614;87;21477;-55
2021/06/09 09:38:28;;;;;;;9.40;5.62;;;;;;;19.55;67.34;94512.53;1606422;87;21130;-53
2021/06/09 09:41:15;;;;;;;13.30;5.22;;;;;;;19.78;66.71;94504.87;1600257;87;21033;-54
2021/06/09 09:43:54;;;;;;;9.75;5.47;;;;;;;19.90;65.73;94507.11;1600970;87;21631;-54
2021/06/09 09:46:32;;;;;;;14.10;5.70;;;;;;;19.96;66.37;94505.05;1601622;88;21129;-53
2021/06/09 09:49:10;;;;;;;25.95;6.47;;;;;;;20.04;66.80;94512.29;1598668;87;21147;-54
2021/06/09 09:52:01;;;;;;;10.75;6.00;;;;;;;20.18;67.53;94503.61;1612004;86;22201;-55
2021/06/09 09:54:31;;;;;;;45.08;7.47;;;;;;;20.33;65.72;94497.04;1608985;87;21060;-56
2021/06/09 09:57:04;;;;;;;13.30;6.08;;;;;;;20.53;64.62;94484.13;1611195;87;21505;-55
2021/06/09 09:59:31;;;;;;;11.45;5.87;;;;;;;20.72;64.32;94464.78;1604911;87;22215;-58
2021/06/09 10:02:02;;;;;;;12.15;5.22;;;;;;;20.95;63.62;94471.00;1609704;86;21140;-54
2021/06/09 10:04:36;;;;;;;7.90;5.65;;;;;;;21.21;64.18;94471.28;1612872;87;21401;-56
2021/06/09 10:07:09;;;;;;;14.05;7.22;;;;;;;21.51;61.71;94456.62;1608519;87;21607;-55
2021/06/09 10:09:44;;;;;;;;;;;;;;;21.77;61.75;94450.63;1612944;87;21192;-54
2021/06/09 10:12:15;;;;;;;24.90;6.20;;;;;;;21.94;61.28;94446.22;1601445;87;21327;-54
2021/06/09 10:14:50;;;;;;;15.43;5.83;;;;;;;22.05;61.75;94449.64;1616343;87;21080;-56
2021/06/09 10:17:27;;;;;;;13.38;6.12;;;;;;;22.15;59.77;94452.20;1610907;87;21072;-56
2021/06/09 10:19:58;;;;;;;11.75;4.95;;;;;;;22.19;56.72;94454.82;1610211;87;21110;-56
2021/06/09 10:22:33;;;;;;;6.75;4.35;;;;;;;22.14;55.73;94455.62;1625611;86;21055;-55
2021/06/09 10:25:12;;;;;;;5.80;4.53;;;;;;;22.14;54.11;94462.63;1599983;87;21158;-57
2021/06/09 10:27:51;;;;;;;5.78;4.53;;;;;;;22.15;55.84;94462.75;1606283;86;21037;-54
2021/06/09 10:30:24;;;;;;;7.47;4.45;;;;;;;22.15;54.34;94461.34;1582229;89;21045;-55
2021/06/09 10:32:59;;;;;;;6.30;5.17;;;;;;;22.15;53.27;94462.75;1610203;87;20990;-54
2021/06/09 10:35:33;;;;;;;14.83;5.95;;;;;;;22.31;53.10;94474.39;1611437;87;21071;-56
2021/06/09 10:38:00;;;;;;;7.35;5.33;;;;;;;22.65;54.23;94472.67;1599736;87;21332;-55
2021/06/09 10:40:29;;;;;;;14.78;6.05;;;;;;;22.97;53.37;94470.66;1577593;87;21097;-57
2021/06/09 10:42:59;;;;;;;11.30;4.62;;;;;;;23.12;51.29;94480.78;1567681;90;21638;-56
2021/06/09 10:45:26;;;;;;;5.30;4.78;;;;;;;23.16;50.01;94478.42;1608128;87;21274;-57
2021/06/09 10:47:56;;;;;;;5.70;5.05;;;;;;;23.12;49.84;94487.80;1621699;87;21712;-55
2021/06/09 10:50:24;;;;;;;12.93;5.50;;;;;;;23.10;50.55;94484.75;1616247;86;22200;-56
2021/06/09 10:52:51;;;;;;;11.00;5.70;;;;;;;23.07;50.23;94480.21;1604126;87;21144;-55
2021/06/09 10:55:18;;;;;;;8.78;5.35;;;;;;;22.98;50.11;94480.59;1606879;87;21111;-55
2021/06/09 10:57:49;;;;;;;6.50;5.87;;;;;;;22.84;49.99;94482.48;1610841;87;21095;-56
2021/06/09 11:00:18;;;;;;;6.50;5.22;;;;;;;22.65;52.07;94491.56;1605108;87;21463;-56
2021/06/09 11:02:48;;;;;;;7.00;4.72;;;;;;;22.50;53.37;94492.00;1605915;87;21207;-59
2021/06/09 11:05:15;;;;;;;7.55;6.40;;;;;;;22.37;52.80;94497.52;1604059;87;21476;-57
2021/06/09 11:07:45;;;;;;;5.67;5.05;;;;;;;22.24;54.26;94491.82;1606719;86;21135;-56
2021/06/09 11:10:31;;;;;;;10.30;5.65;;;;;;;22.12;54.12;94490.43;1619217;87;21150;-57
2021/06/09 11:12:59;;;;;;;9.43;5.50;;;;;;;21.97;54.97;94488.58;1599145;88;21456;-58
2021/06/09 11:15:33;;;;;;;9.35;5.62;;;;;;;;;;1605195;87;21159;-56
2021/06/09 11:18:12;;;;;;;7.45;5.30;;;;;;;21.76;61.23;94503.73;1611015;87;21090;-54
2021/06/09 11:20:48;;;;;;;8.03;5.83;;;;;;;21.58;60.10;94497.39;1608997;87;21978;-53
2021/06/09 11:23:26;;;;;;;5.65;4.12;;;;;;;21.32;61.85;94497.77;1607087;87;21096;-55
2021/06/09 11:25:54;;;;;;;5.90;4.15;;;;;;;21.06;61.37;94486.28;1602575;87;21140;-56
2021/06/09 11:28:39;;;;;;;7.08;5.00;;;;;;;20.94;63.83;94505.84;1605171;87;21139;-57
2021/06/09 11:31:10;;;;;;;5.47;4.83;;;;;;;20.83;64.44;94497.50;1603699;87;21479;-56
2021/06/09 11:34:11;;;;;;;5.90;5.12;;;;;;;20.75;65.45;94504.94;1618197;85;21170;-55
2021/06/09 11:37:44;;;;;;;7.22;6.25;;;;;;;20.70;66.72;94517.67;1617976;86;21098;-55
2021/06/09 11:40:11;;;;;;;7.45;5.62;;;;;;;20.61;67.38;94528.41;1612273;87;21048;-55
2021/06/09 11:42:38;;;;;;;7.35;5.30;;;;;;;20.43;64.72;94533.20;1619417;87;21240;-56
2021/06/09 11:45:23;;;;;;;11.78;4.72;;;;;;;20.22;63.68;94549.55;1613958;86;21144;-55
2021/06/09 11:48:13;;;;;;;15.23;6.42;;;;;;;19.90;62.88;94560.16;1621773;87;21032;-56
2021/06/09 11:50:41;;;;;;;8.45;5.58;;;;;;;19.31;64.17;94548.59;1616602;87;21453;-60